Airfield :
LOGIN :

Register | Disclaimer

   EN    FR    IT 

 










Legend :    VFR   Marginal VFR   IFR   Intensive IFR   Very Intensive IFR
Visi :
Ceiling :
>= 8 km
>= 3000ft
5 to 8 km
1000 to 3000 ft
1500m to 5 km
500 to 1000 ft
800 to 1500m
200 to 500 ft
< 800m
< 200 ft
Symbols :   Thunderstorms  Fog  Heavy snow  Heavy precipitations  Wind > 20 kt
SIGMETs :     Misc.  Thunderstorms  Icing  Turbulence  Mountain Waves  Volcanic Ashes






- Airport Elevation : 37 ft
- IATA code : FRO


ENFL - Florø

CURRENT METAR :
  • 030050Z AUTO 06002KT 9999NDV OVC110/// 11/09 Q1012

EXPIRED METARs :
  • 030020Z AUTO 05001KT 9999NDV OVC120/// 12/09 Q1012
  • 022350Z AUTO 00000KT 9999NDV OVC120/// 12/09 Q1012
  • 022320Z AUTO 00000KT 9999NDV OVC130/// 12/08 Q1012
  • 022250Z AUTO 00000KT 9999NDV OVC150/// 12/08 Q1013
  • 022220Z AUTO 00000KT 9999NDV OVC150/// 12/08 Q1013
  • 022150Z AUTO 00000KT 9999NDV SCT120/// BKN160/// 13/08 Q1013

TAF TAF ENFL
Valid from the 03 at 00:00 until the 03 at 09:00 UTC


022300Z 0300/0309 VRB05KT 9999 FEW050 BKN100
PROB40 0300/0306 01012KT
BECMG 0306/0309 01015KT



MET'MAP, your aeronautical weather chart ! - Copyright ORBIFLY December 2007 - Disclaimer

ORBIFLY MET'MAP TEAM :

Programming & Development : Alexandra Zaïnal
Concept & original design : Baudouin d'Aumeries
Assistance for programming : Marc-Olivier Méhu
Technical & hardware support : Manuel Goepfert

Contact : metmap@orbifly.com




SOURCES & CREDITS :

   NOAA